createdAt,value
2022-09-10T00:02:04.702Z,23.00
2022-09-10T00:05:07.922Z,23.00
2022-09-10T00:08:11.306Z,22.90
2022-09-10T00:11:15.220Z,22.90
2022-09-10T00:14:21.835Z,22.90
2022-09-10T00:17:24.442Z,22.90
2022-09-10T00:20:27.455Z,22.80
2022-09-10T00:23:29.884Z,22.80
2022-09-10T00:26:38.298Z,22.80
2022-09-10T00:29:40.392Z,22.80
2022-09-10T00:32:42.724Z,22.70
2022-09-10T00:35:46.023Z,22.70
2022-09-10T00:38:50.654Z,22.70
2022-09-10T00:41:55.224Z,22.70
2022-09-10T00:45:00.469Z,22.70
2022-09-10T00:48:30.410Z,22.70
2022-09-10T00:51:35.889Z,22.70
2022-09-10T00:54:39.915Z,22.60
2022-09-10T00:57:43.448Z,22.60
2022-09-10T01:00:46.070Z,22.60
2022-09-10T01:03:50.789Z,22.60
2022-09-10T01:06:53.376Z,22.50
2022-09-10T01:09:59.413Z,22.50
2022-09-10T01:13:11.274Z,22.50
2022-09-10T01:16:39.487Z,22.50
2022-09-10T01:20:10.676Z,22.50
2022-09-10T01:23:17.775Z,22.40
2022-09-10T01:26:57.019Z,22.40
2022-09-10T01:30:03.605Z,22.30
2022-09-10T01:33:24.037Z,22.30
2022-09-10T01:36:31.617Z,22.30
2022-09-10T01:39:34.343Z,22.30
2022-09-10T01:42:39.867Z,22.30
2022-09-10T01:46:00.304Z,22.30
2022-09-10T01:49:31.430Z,22.30
2022-09-10T01:52:52.448Z,22.20
2022-09-10T01:56:00.549Z,22.20
2022-09-10T01:59:34.870Z,22.10
2022-09-10T02:02:44.440Z,22.10
2022-09-10T02:05:50.311Z,22.10
2022-09-10T02:08:53.769Z,22.10
2022-09-10T02:11:56.837Z,22.00
2022-09-10T02:14:59.044Z,22.00
2022-09-10T02:18:01.995Z,21.90
2022-09-10T02:21:04.420Z,21.90
2022-09-10T02:24:10.170Z,21.80
2022-09-10T02:27:13.230Z,21.80
2022-09-10T02:30:17.079Z,21.80
2022-09-10T02:33:19.619Z,21.80
2022-09-10T02:36:26.079Z,21.70
2022-09-10T02:39:29.759Z,21.60
2022-09-10T02:42:32.601Z,21.50
2022-09-10T02:45:34.821Z,21.50
2022-09-10T02:48:37.464Z,21.50
2022-09-10T02:51:41.054Z,21.40
2022-09-10T02:54:43.200Z,21.40
2022-09-10T02:57:45.632Z,21.50
2022-09-10T03:00:47.713Z,21.60
2022-09-10T03:03:54.055Z,21.50
2022-09-10T03:06:56.118Z,21.60
2022-09-10T03:09:58.225Z,21.60
2022-09-10T03:13:00.986Z,21.60
2022-09-10T03:16:04.383Z,21.60
2022-09-10T03:19:06.659Z,21.60
2022-09-10T03:22:08.772Z,21.70
2022-09-10T03:25:11.866Z,21.60
2022-09-10T03:28:14.013Z,21.60
2022-09-10T03:31:18.347Z,21.50
2022-09-10T03:34:21.154Z,21.50
2022-09-10T03:37:24.296Z,21.40
2022-09-10T03:40:26.579Z,21.40
2022-09-10T03:43:28.869Z,21.50
2022-09-10T03:46:31.466Z,21.50
2022-09-10T03:49:33.593Z,21.50
2022-09-10T03:52:35.930Z,21.40
2022-09-10T03:55:38.394Z,21.40
2022-09-10T03:58:40.792Z,21.40
2022-09-10T04:01:43.885Z,21.40
2022-09-10T04:04:47.071Z,21.40
2022-09-10T04:07:49.142Z,21.30
2022-09-10T04:10:51.356Z,21.30
2022-09-10T04:13:54.421Z,21.30
2022-09-10T04:16:59.153Z,21.30
2022-09-10T04:20:01.256Z,21.30
2022-09-10T04:23:03.530Z,21.30
2022-09-10T04:26:17.862Z,21.30
2022-09-10T04:29:20.241Z,21.40
2022-09-10T04:32:22.576Z,21.30
2022-09-10T04:35:26.130Z,21.30
2022-09-10T04:38:30.636Z,21.30
2022-09-10T04:41:33.019Z,21.30
2022-09-10T04:44:35.088Z,21.30
2022-09-10T04:47:38.076Z,21.30
2022-09-10T04:50:53.984Z,21.30
2022-09-10T04:54:03.194Z,21.20
2022-09-10T04:57:07.007Z,21.30
2022-09-10T05:00:10.713Z,21.30
2022-09-10T05:03:14.829Z,21.30
2022-09-10T05:06:17.850Z,21.30
2022-09-10T05:09:21.182Z,21.30
2022-09-10T05:12:23.775Z,21.20
2022-09-10T05:15:26.063Z,21.20
2022-09-10T05:18:28.458Z,21.20
2022-09-10T05:21:31.350Z,21.20
2022-09-10T05:24:34.600Z,21.20
2022-09-10T05:27:37.905Z,21.10
2022-09-10T05:30:40.195Z,21.20
2022-09-10T05:33:42.418Z,21.20
2022-09-10T05:36:44.693Z,21.10
2022-09-10T05:39:48.663Z,21.10
2022-09-10T05:42:51.146Z,21.10
2022-09-10T05:45:53.668Z,21.10
2022-09-10T05:48:55.970Z,21.20
2022-09-10T05:51:58.370Z,21.20
2022-09-10T05:55:00.726Z,21.20
2022-09-10T05:58:03.209Z,21.30
2022-09-10T06:01:05.472Z,21.10
2022-09-10T06:04:07.713Z,21.10
2022-09-10T06:07:10.694Z,21.10
2022-09-10T06:10:13.095Z,21.10
2022-09-10T06:13:15.463Z,21.00
2022-09-10T06:16:18.043Z,21.00
2022-09-10T06:19:20.320Z,20.90
2022-09-10T06:22:23.804Z,20.90
2022-09-10T06:25:25.847Z,21.00
2022-09-10T06:28:28.769Z,21.10
2022-09-10T06:31:31.169Z,21.20
2022-09-10T06:34:35.945Z,21.20
2022-09-10T06:37:38.065Z,21.30
2022-09-10T06:40:59.384Z,21.30
2022-09-10T06:44:01.677Z,21.30
2022-09-10T06:47:45.954Z,21.40
2022-09-10T06:50:26.824Z,21.70
2022-09-10T06:53:29.979Z,22.60
2022-09-10T06:56:32.343Z,23.80
2022-09-10T06:59:34.903Z,24.70
2022-09-10T07:02:37.167Z,25.10
2022-09-10T07:05:39.172Z,25.40
2022-09-10T07:08:42.090Z,25.70
2022-09-10T07:11:44.179Z,26.40
2022-09-10T07:14:47.086Z,26.90
2022-09-10T07:17:58.138Z,27.40
2022-09-10T07:21:15.429Z,27.90
2022-09-10T07:24:18.302Z,28.50
2022-09-10T07:27:20.584Z,28.60
2022-09-10T07:30:22.721Z,29.10
2022-09-10T07:33:25.033Z,29.50
2022-09-10T07:36:29.045Z,30.00
2022-09-10T07:39:31.593Z,30.00
2022-09-10T07:42:35.895Z,30.50
2022-09-10T07:45:38.142Z,31.20
2022-09-10T07:48:41.739Z,31.20
2022-09-10T07:51:44.112Z,31.50
2022-09-10T07:54:46.340Z,31.70
2022-09-10T07:57:48.829Z,32.00
2022-09-10T08:00:50.887Z,33.10
2022-09-10T08:03:57.204Z,34.00
2022-09-10T08:06:59.355Z,34.60
2022-09-10T08:10:01.535Z,35.10
2022-09-10T08:13:04.143Z,35.40
2022-09-10T08:16:19.300Z,35.50
2022-09-10T08:19:21.776Z,36.30
2022-09-10T08:22:24.528Z,36.30
2022-09-10T08:25:26.696Z,36.50
2022-09-10T08:28:28.942Z,36.30
2022-09-10T08:31:31.104Z,37.20
2022-09-10T08:34:34.471Z,36.50
2022-09-10T08:37:38.200Z,36.00
2022-09-10T08:40:43.574Z,35.70
2022-09-10T08:44:03.784Z,36.20
2022-09-10T08:47:21.418Z,36.80
2022-09-10T08:51:23.942Z,37.20
2022-09-10T08:54:38.072Z,37.10
2022-09-10T08:57:54.509Z,37.60
2022-09-10T09:01:02.229Z,36.90
2022-09-10T09:04:16.944Z,37.10
2022-09-10T09:07:20.789Z,36.80
2022-09-10T09:11:11.388Z,36.80
2022-09-10T09:14:19.496Z,37.00
2022-09-10T09:17:27.770Z,38.60
2022-09-10T09:20:49.218Z,39.50
2022-09-10T09:24:12.698Z,39.00
2022-09-10T09:27:18.653Z,38.40
2022-09-10T09:30:28.538Z,37.70
2022-09-10T09:33:31.505Z,38.80
2022-09-10T09:36:40.257Z,38.80
2022-09-10T09:39:53.838Z,39.00
2022-09-10T09:43:02.386Z,38.20
2022-09-10T09:46:07.785Z,39.00
2022-09-10T09:49:16.941Z,38.80
2022-09-10T09:52:22.665Z,38.70
2022-09-10T09:55:40.471Z,39.10
2022-09-10T09:58:49.560Z,38.60
2022-09-10T10:01:52.001Z,38.50
2022-09-10T10:05:07.414Z,39.20
2022-09-10T10:08:31.114Z,40.10
2022-09-10T10:11:47.411Z,40.30
2022-09-10T10:14:50.157Z,40.60
2022-09-10T10:17:53.423Z,40.50
2022-09-10T10:21:30.860Z,40.50
2022-09-10T10:24:34.345Z,39.20
2022-09-10T10:27:41.935Z,39.70
2022-09-10T10:30:44.890Z,40.30
2022-09-10T10:34:06.052Z,40.20
2022-09-10T10:37:21.409Z,40.70
2022-09-10T10:40:36.946Z,40.70
2022-09-10T10:43:51.191Z,40.40
2022-09-10T10:47:37.872Z,39.90
2022-09-10T10:51:12.733Z,39.70
2022-09-10T10:54:37.691Z,40.00
2022-09-10T10:57:59.087Z,39.30
2022-09-10T11:01:16.194Z,38.20
2022-09-10T11:04:41.245Z,39.50
2022-09-10T11:07:44.855Z,40.00
2022-09-10T11:10:54.814Z,39.40
2022-09-10T11:14:12.965Z,39.40
2022-09-10T11:17:40.382Z,38.00
2022-09-10T11:21:00.454Z,37.70
2022-09-10T11:24:05.973Z,37.60
2022-09-10T11:27:27.760Z,38.70
2022-09-10T11:30:33.714Z,39.30
2022-09-10T11:33:51.464Z,39.70
2022-09-10T11:37:04.794Z,39.40
2022-09-10T11:40:18.024Z,38.70
2022-09-10T11:43:26.170Z,37.40
2022-09-10T11:46:34.433Z,35.90
2022-09-10T11:49:48.496Z,35.30
2022-09-10T11:52:51.510Z,34.60
2022-09-10T11:55:59.970Z,34.00
2022-09-10T11:59:18.370Z,33.80
2022-09-10T12:02:39.073Z,33.40
2022-09-10T12:06:02.614Z,32.80
2022-09-10T12:09:36.123Z,32.70
2022-09-10T12:12:43.793Z,32.50
2022-09-10T12:15:56.255Z,32.30
2022-09-10T12:19:00.095Z,32.30
2022-09-10T12:22:09.544Z,32.10
2022-09-10T12:25:18.648Z,32.10
2022-09-10T12:28:42.520Z,31.80
2022-09-10T12:32:09.908Z,31.60
2022-09-10T12:35:34.463Z,31.60
2022-09-10T12:39:07.149Z,31.60
2022-09-10T12:42:29.383Z,31.50
2022-09-10T12:46:04.405Z,31.40
2022-09-10T12:49:12.476Z,31.50
2022-09-10T12:52:51.091Z,31.50
2022-09-10T12:56:24.087Z,31.40
2022-09-10T12:59:51.385Z,31.40
2022-09-10T13:03:00.889Z,31.30
2022-09-10T13:06:07.249Z,31.40
2022-09-10T13:09:23.682Z,31.40
2022-09-10T13:12:26.957Z,31.40
2022-09-10T13:15:38.764Z,31.50
2022-09-10T13:18:42.152Z,31.40
2022-09-10T13:21:44.497Z,31.40
2022-09-10T13:25:24.144Z,31.20
2022-09-10T13:28:29.550Z,31.20
2022-09-10T13:31:35.840Z,31.20
2022-09-10T13:34:41.045Z,31.20
2022-09-10T13:38:13.646Z,31.20
2022-09-10T13:41:37.188Z,30.80
2022-09-10T13:45:21.049Z,30.40
2022-09-10T13:48:27.749Z,30.70
2022-09-10T13:51:41.741Z,30.90
2022-09-10T13:54:51.606Z,30.90
2022-09-10T13:58:17.170Z,30.90
2022-09-10T14:01:19.534Z,31.10
2022-09-10T14:04:33.124Z,31.20
2022-09-10T14:07:35.557Z,31.20
2022-09-10T14:10:53.862Z,31.20
2022-09-10T14:14:37.942Z,31.30
2022-09-10T14:17:46.125Z,31.20
2022-09-10T14:20:49.424Z,31.30
2022-09-10T14:23:51.694Z,31.20
2022-09-10T14:27:16.470Z,31.20
2022-09-10T14:30:24.750Z,31.30
2022-09-10T14:33:35.720Z,31.20
2022-09-10T14:36:38.792Z,31.00
2022-09-10T14:39:44.513Z,30.90
2022-09-10T14:42:48.972Z,30.60
2022-09-10T14:45:52.056Z,30.70
2022-09-10T14:49:03.815Z,30.30
2022-09-10T14:52:06.798Z,30.40
2022-09-10T14:55:08.877Z,30.60
2022-09-10T14:58:11.915Z,30.60
2022-09-10T15:01:15.581Z,30.60
2022-09-10T15:04:23.774Z,30.70
2022-09-10T15:07:27.621Z,30.70
2022-09-10T15:10:29.608Z,30.90
2022-09-10T15:13:33.811Z,30.90
2022-09-10T15:16:37.083Z,30.90
2022-09-10T15:19:39.163Z,31.00
2022-09-10T15:22:41.454Z,31.10
2022-09-10T15:25:50.915Z,31.10
2022-09-10T15:28:53.022Z,31.10
2022-09-10T15:31:59.579Z,31.00
2022-09-10T15:35:01.736Z,31.10
2022-09-10T15:38:03.821Z,31.10
2022-09-10T15:41:12.863Z,31.20
2022-09-10T15:44:15.445Z,31.10
2022-09-10T15:47:17.843Z,31.10
2022-09-10T15:50:20.157Z,31.10
2022-09-10T15:53:22.295Z,31.00
2022-09-10T15:56:26.755Z,30.90
2022-09-10T15:59:28.843Z,30.90
2022-09-10T16:02:30.951Z,30.70
2022-09-10T16:05:35.664Z,30.60
2022-09-10T16:08:37.805Z,30.60
2022-09-10T16:11:41.643Z,30.60
2022-09-10T16:14:45.413Z,30.60
2022-09-10T16:17:47.494Z,30.50
2022-09-10T16:20:49.678Z,30.40
2022-09-10T16:23:54.178Z,30.20
2022-09-10T16:26:56.277Z,30.20
2022-09-10T16:29:58.353Z,30.20
2022-09-10T16:33:01.104Z,30.20
2022-09-10T16:36:07.115Z,30.20
2022-09-10T16:39:12.578Z,30.00
2022-09-10T16:42:14.958Z,30.00
2022-09-10T16:45:17.097Z,30.00
2022-09-10T16:48:19.208Z,30.00
2022-09-10T16:51:26.366Z,30.00
2022-09-10T16:54:30.303Z,29.90
2022-09-10T16:57:32.358Z,29.90
2022-09-10T17:00:34.660Z,29.80
2022-09-10T17:03:41.509Z,29.80
2022-09-10T17:06:44.059Z,29.80
2022-09-10T17:09:46.118Z,29.80
2022-09-10T17:12:48.323Z,29.80
2022-09-10T17:15:50.879Z,29.80
2022-09-10T17:18:58.497Z,29.80
2022-09-10T17:22:00.830Z,29.80
2022-09-10T17:25:02.955Z,29.70
2022-09-10T17:28:05.579Z,29.70
2022-09-10T17:31:07.743Z,29.60
2022-09-10T17:34:14.146Z,29.50
2022-09-10T17:37:16.345Z,29.50
2022-09-10T17:40:20.221Z,29.50
2022-09-10T17:43:26.753Z,29.50
2022-09-10T17:46:31.345Z,29.50
2022-09-10T17:49:33.595Z,29.40
2022-09-10T17:52:35.851Z,29.40
2022-09-10T17:55:38.022Z,29.30
2022-09-10T17:58:40.904Z,29.20
2022-09-10T18:01:46.320Z,29.10
2022-09-10T18:04:51.548Z,29.10
2022-09-10T18:07:53.808Z,29.10
2022-09-10T18:11:07.232Z,28.90
2022-09-10T18:14:17.732Z,28.80
2022-09-10T18:17:19.786Z,28.80
2022-09-10T18:20:23.245Z,28.70
2022-09-10T18:23:25.499Z,28.60
2022-09-10T18:26:29.890Z,28.50
2022-09-10T18:29:32.518Z,28.40
2022-09-10T18:32:35.274Z,28.30
2022-09-10T18:35:37.414Z,28.20
2022-09-10T18:38:40.388Z,28.20
2022-09-10T18:41:43.567Z,28.00
2022-09-10T18:44:45.733Z,27.90
2022-09-10T18:47:48.285Z,27.70
2022-09-10T18:50:50.594Z,27.60
2022-09-10T18:53:58.445Z,27.40
2022-09-10T18:57:01.461Z,27.10
2022-09-10T19:00:05.149Z,27.00
2022-09-10T19:03:08.328Z,26.80
2022-09-10T19:06:15.375Z,26.70
2022-09-10T19:09:29.071Z,26.50
2022-09-10T19:12:31.165Z,26.20
2022-09-10T19:15:33.630Z,26.10
2022-09-10T19:18:36.541Z,26.00
2022-09-10T19:21:38.695Z,25.90
2022-09-10T19:24:56.403Z,25.90
2022-09-10T19:27:58.671Z,25.80
2022-09-10T19:31:05.288Z,25.70
2022-09-10T19:34:08.890Z,25.60
2022-09-10T19:37:11.387Z,25.60
2022-09-10T19:40:13.596Z,25.50
2022-09-10T19:43:16.558Z,25.40
2022-09-10T19:46:20.187Z,25.30
2022-09-10T19:49:22.422Z,25.30
2022-09-10T19:52:25.778Z,25.20
2022-09-10T19:55:27.906Z,25.10
2022-09-10T19:58:30.386Z,25.00
2022-09-10T20:01:35.708Z,24.90
2022-09-10T20:04:37.957Z,24.80
2022-09-10T20:07:40.072Z,24.80
2022-09-10T20:10:52.050Z,24.80
2022-09-10T20:13:57.894Z,24.80
2022-09-10T20:17:00.022Z,24.70
2022-09-10T20:20:06.038Z,24.70
2022-09-10T20:23:08.428Z,24.70
2022-09-10T20:26:21.560Z,24.70
2022-09-10T20:29:25.485Z,24.60
2022-09-10T20:32:27.776Z,24.50
2022-09-10T20:35:30.421Z,24.60
2022-09-10T20:38:33.818Z,24.60
2022-09-10T20:41:36.021Z,24.50
2022-09-10T20:44:39.077Z,24.60
2022-09-10T20:47:43.201Z,24.50
2022-09-10T20:50:52.945Z,24.40
2022-09-10T20:53:56.076Z,24.40
2022-09-10T20:57:01.057Z,24.30
2022-09-10T21:00:03.470Z,24.20
2022-09-10T21:03:05.513Z,24.20
2022-09-10T21:06:08.962Z,24.20
2022-09-10T21:09:14.410Z,24.20
2022-09-10T21:12:16.978Z,24.10
2022-09-10T21:15:19.082Z,24.00
2022-09-10T21:18:21.372Z,24.00
2022-09-10T21:21:28.076Z,24.10
2022-09-10T21:24:30.306Z,24.00
2022-09-10T21:27:33.691Z,24.00
2022-09-10T21:30:38.468Z,24.00
2022-09-10T21:33:42.608Z,24.00
2022-09-10T21:36:45.476Z,24.10
2022-09-10T21:39:47.804Z,24.10
2022-09-10T21:42:49.933Z,24.10
2022-09-10T21:45:52.429Z,24.10
2022-09-10T21:48:55.406Z,24.10
2022-09-10T21:51:57.921Z,24.10
2022-09-10T21:55:00.062Z,24.00
2022-09-10T21:58:02.227Z,24.00
2022-09-10T22:01:13.490Z,24.00
2022-09-10T22:04:21.470Z,23.90
2022-09-10T22:07:24.770Z,23.90
2022-09-10T22:10:29.330Z,24.00
2022-09-10T22:13:32.285Z,23.90
2022-09-10T22:16:35.370Z,23.90
2022-09-10T22:19:37.768Z,23.80
2022-09-10T22:22:39.934Z,23.80
2022-09-10T22:25:42.022Z,23.80
2022-09-10T22:28:44.858Z,23.70
2022-09-10T22:31:48.111Z,23.80
2022-09-10T22:34:50.218Z,23.80
2022-09-10T22:37:56.740Z,23.80
2022-09-10T22:41:03.573Z,23.80
2022-09-10T22:44:06.600Z,23.80
2022-09-10T22:47:08.670Z,23.70
2022-09-10T22:50:10.787Z,23.70
2022-09-10T22:53:14.715Z,23.80
2022-09-10T22:56:18.451Z,23.80
2022-09-10T22:59:20.558Z,23.80
2022-09-10T23:02:22.732Z,23.80
2022-09-10T23:05:24.806Z,23.80
2022-09-10T23:08:27.724Z,23.80
2022-09-10T23:11:31.380Z,23.80
2022-09-10T23:14:33.725Z,23.80
2022-09-10T23:17:35.826Z,23.90
2022-09-10T23:20:38.161Z,23.90
2022-09-10T23:23:46.342Z,23.80
2022-09-10T23:26:48.641Z,23.80
2022-09-10T23:29:50.876Z,23.80
2022-09-10T23:32:54.183Z,23.70
2022-09-10T23:35:56.233Z,23.70
2022-09-10T23:38:59.304Z,23.80
2022-09-10T23:42:03.973Z,23.70
2022-09-10T23:45:08.114Z,23.70
2022-09-10T23:48:10.354Z,23.70
2022-09-10T23:51:19.522Z,23.70
2022-09-10T23:54:21.929Z,23.70
2022-09-10T23:57:24.509Z,23.60
